sensor_id;sensor_type;location;lat;lon;timestamp;P1;durP1;ratioP1;P2;durP2;ratioP2
10341;SDS011;5216;54.602;18.356;2022-07-22T00:01:51;18.48;;;14.32;;
10341;SDS011;5216;54.602;18.356;2022-07-22T00:04:18;14.93;;;13.10;;
10341;SDS011;5216;54.602;18.356;2022-07-22T00:06:44;12.63;;;11.35;;
10341;SDS011;5216;54.602;18.356;2022-07-22T00:09:11;15.27;;;12.70;;
10341;SDS011;5216;54.602;18.356;2022-07-22T00:11:38;14.77;;;13.18;;
10341;SDS011;5216;54.602;18.356;2022-07-22T00:14:04;14.40;;;13.00;;
10341;SDS011;5216;54.602;18.356;2022-07-22T00:16:31;15.40;;;13.82;;
10341;SDS011;5216;54.602;18.356;2022-07-22T00:18:58;19.45;;;14.75;;
10341;SDS011;5216;54.602;18.356;2022-07-22T00:21:25;16.55;;;14.77;;
10341;SDS011;5216;54.602;18.356;2022-07-22T00:23:52;19.30;;;13.75;;
10341;SDS011;5216;54.602;18.356;2022-07-22T00:26:19;15.35;;;13.45;;
10341;SDS011;5216;54.602;18.356;2022-07-22T00:28:45;15.30;;;13.75;;
10341;SDS011;5216;54.602;18.356;2022-07-22T00:31:12;15.27;;;13.77;;
10341;SDS011;5216;54.602;18.356;2022-07-22T00:33:39;15.15;;;13.63;;
10341;SDS011;5216;54.602;18.356;2022-07-22T00:36:05;17.05;;;14.00;;
10341;SDS011;5216;54.602;18.356;2022-07-22T00:38:32;19.85;;;14.88;;
10341;SDS011;5216;54.602;18.356;2022-07-22T00:41:00;16.23;;;14.52;;
10341;SDS011;5216;54.602;18.356;2022-07-22T00:43:26;16.35;;;14.55;;
10341;SDS011;5216;54.602;18.356;2022-07-22T00:45:54;14.15;;;12.82;;
10341;SDS011;5216;54.602;18.356;2022-07-22T00:48:20;15.88;;;13.98;;
10341;SDS011;5216;54.602;18.356;2022-07-22T00:50:47;14.27;;;12.77;;
10341;SDS011;5216;54.602;18.356;2022-07-22T00:53:14;14.50;;;13.05;;
10341;SDS011;5216;54.602;18.356;2022-07-22T00:55:42;15.20;;;13.55;;
10341;SDS011;5216;54.602;18.356;2022-07-22T00:58:08;14.52;;;13.02;;
10341;SDS011;5216;54.602;18.356;2022-07-22T01:00:35;14.50;;;13.00;;
10341;SDS011;5216;54.602;18.356;2022-07-22T01:03:02;15.38;;;13.25;;
10341;SDS011;5216;54.602;18.356;2022-07-22T01:05:28;16.58;;;13.45;;
10341;SDS011;5216;54.602;18.356;2022-07-22T01:07:55;14.85;;;13.18;;
10341;SDS011;5216;54.602;18.356;2022-07-22T01:10:22;15.43;;;13.85;;
10341;SDS011;5216;54.602;18.356;2022-07-22T01:12:48;14.15;;;12.65;;
10341;SDS011;5216;54.602;18.356;2022-07-22T01:15:15;16.40;;;14.02;;
10341;SDS011;5216;54.602;18.356;2022-07-22T01:17:42;15.65;;;13.52;;
10341;SDS011;5216;54.602;18.356;2022-07-22T01:20:09;14.93;;;13.40;;
10341;SDS011;5216;54.602;18.356;2022-07-22T01:22:35;13.80;;;12.25;;
10341;SDS011;5216;54.602;18.356;2022-07-22T01:25:02;15.10;;;13.50;;
10341;SDS011;5216;54.602;18.356;2022-07-22T01:27:29;15.63;;;12.60;;
10341;SDS011;5216;54.602;18.356;2022-07-22T01:29:56;15.43;;;13.05;;
10341;SDS011;5216;54.602;18.356;2022-07-22T01:32:23;13.68;;;12.05;;
10341;SDS011;5216;54.602;18.356;2022-07-22T01:34:49;13.82;;;12.43;;
10341;SDS011;5216;54.602;18.356;2022-07-22T01:37:16;13.23;;;11.93;;
10341;SDS011;5216;54.602;18.356;2022-07-22T01:39:43;14.23;;;12.75;;
10341;SDS011;5216;54.602;18.356;2022-07-22T01:42:09;13.45;;;12.00;;
10341;SDS011;5216;54.602;18.356;2022-07-22T01:44:36;13.70;;;12.30;;
10341;SDS011;5216;54.602;18.356;2022-07-22T01:47:03;14.68;;;12.90;;
10341;SDS011;5216;54.602;18.356;2022-07-22T01:49:29;15.65;;;12.48;;
10341;SDS011;5216;54.602;18.356;2022-07-22T01:51:56;13.80;;;12.38;;
10341;SDS011;5216;54.602;18.356;2022-07-22T01:54:23;12.93;;;11.57;;
10341;SDS011;5216;54.602;18.356;2022-07-22T01:56:50;12.65;;;11.35;;
10341;SDS011;5216;54.602;18.356;2022-07-22T01:59:16;12.13;;;10.73;;
10341;SDS011;5216;54.602;18.356;2022-07-22T02:01:43;12.20;;;10.50;;
10341;SDS011;5216;54.602;18.356;2022-07-22T02:04:10;10.80;;;9.68;;
10341;SDS011;5216;54.602;18.356;2022-07-22T02:06:37;13.55;;;12.23;;
10341;SDS011;5216;54.602;18.356;2022-07-22T02:09:03;14.82;;;13.23;;
10341;SDS011;5216;54.602;18.356;2022-07-22T02:11:30;12.60;;;11.35;;
10341;SDS011;5216;54.602;18.356;2022-07-22T02:13:57;13.02;;;10.82;;
10341;SDS011;5216;54.602;18.356;2022-07-22T02:16:24;13.05;;;11.75;;
10341;SDS011;5216;54.602;18.356;2022-07-22T02:18:51;12.10;;;10.90;;
10341;SDS011;5216;54.602;18.356;2022-07-22T02:21:20;14.77;;;10.43;;
10341;SDS011;5216;54.602;18.356;2022-07-22T02:23:47;12.05;;;10.85;;
10341;SDS011;5216;54.602;18.356;2022-07-22T02:26:13;11.32;;;10.25;;
10341;SDS011;5216;54.602;18.356;2022-07-22T02:28:40;12.07;;;10.18;;
10341;SDS011;5216;54.602;18.356;2022-07-22T02:31:07;11.00;;;9.88;;
10341;SDS011;5216;54.602;18.356;2022-07-22T02:33:33;11.57;;;10.38;;
10341;SDS011;5216;54.602;18.356;2022-07-22T02:36:01;12.23;;;10.85;;
10341;SDS011;5216;54.602;18.356;2022-07-22T02:38:29;13.88;;;12.45;;
10341;SDS011;5216;54.602;18.356;2022-07-22T02:40:56;11.45;;;10.38;;
10341;SDS011;5216;54.602;18.356;2022-07-22T02:43:22;11.50;;;9.98;;
10341;SDS011;5216;54.602;18.356;2022-07-22T02:45:50;11.35;;;10.32;;
10341;SDS011;5216;54.602;18.356;2022-07-22T02:48:17;11.48;;;10.38;;
10341;SDS011;5216;54.602;18.356;2022-07-22T02:50:47;11.80;;;10.60;;
10341;SDS011;5216;54.602;18.356;2022-07-22T02:53:14;12.32;;;10.40;;
10341;SDS011;5216;54.602;18.356;2022-07-22T02:55:40;12.20;;;10.48;;
10341;SDS011;5216;54.602;18.356;2022-07-22T02:58:07;11.65;;;10.52;;
10341;SDS011;5216;54.602;18.356;2022-07-22T03:00:35;12.82;;;10.63;;
10341;SDS011;5216;54.602;18.356;2022-07-22T03:03:04;11.18;;;10.07;;
10341;SDS011;5216;54.602;18.356;2022-07-22T03:05:30;12.77;;;10.27;;
10341;SDS011;5216;54.602;18.356;2022-07-22T03:08:00;13.90;;;10.80;;
10341;SDS011;5216;54.602;18.356;2022-07-22T03:10:27;10.95;;;9.85;;
10341;SDS011;5216;54.602;18.356;2022-07-22T03:12:53;13.82;;;11.30;;
10341;SDS011;5216;54.602;18.356;2022-07-22T03:15:20;12.32;;;11.05;;
10341;SDS011;5216;54.602;18.356;2022-07-22T03:17:46;12.82;;;11.52;;
10341;SDS011;5216;54.602;18.356;2022-07-22T03:20:13;11.77;;;10.45;;
10341;SDS011;5216;54.602;18.356;2022-07-22T03:22:40;12.57;;;10.57;;
10341;SDS011;5216;54.602;18.356;2022-07-22T03:25:06;14.25;;;10.52;;
10341;SDS011;5216;54.602;18.356;2022-07-22T03:27:34;11.50;;;10.05;;
10341;SDS011;5216;54.602;18.356;2022-07-22T03:30:01;11.63;;;10.52;;
10341;SDS011;5216;54.602;18.356;2022-07-22T03:32:27;13.48;;;11.35;;
10341;SDS011;5216;54.602;18.356;2022-07-22T03:34:54;16.10;;;11.93;;
10341;SDS011;5216;54.602;18.356;2022-07-22T03:37:29;12.13;;;10.93;;
10341;SDS011;5216;54.602;18.356;2022-07-22T03:39:55;13.90;;;12.50;;
10341;SDS011;5216;54.602;18.356;2022-07-22T03:42:22;13.43;;;12.02;;
10341;SDS011;5216;54.602;18.356;2022-07-22T03:44:48;13.65;;;12.02;;
10341;SDS011;5216;54.602;18.356;2022-07-22T03:47:19;13.32;;;11.32;;
10341;SDS011;5216;54.602;18.356;2022-07-22T03:49:46;14.60;;;12.65;;
10341;SDS011;5216;54.602;18.356;2022-07-22T03:52:13;13.48;;;12.20;;
10341;SDS011;5216;54.602;18.356;2022-07-22T03:54:40;13.23;;;12.05;;
10341;SDS011;5216;54.602;18.356;2022-07-22T03:57:07;14.85;;;12.18;;
10341;SDS011;5216;54.602;18.356;2022-07-22T03:59:34;13.13;;;11.82;;
10341;SDS011;5216;54.602;18.356;2022-07-22T04:02:01;12.52;;;11.25;;
10341;SDS011;5216;54.602;18.356;2022-07-22T04:04:28;14.00;;;11.80;;
10341;SDS011;5216;54.602;18.356;2022-07-22T04:06:55;13.70;;;12.30;;
10341;SDS011;5216;54.602;18.356;2022-07-22T04:09:22;13.40;;;12.00;;
10341;SDS011;5216;54.602;18.356;2022-07-22T04:11:49;14.27;;;12.77;;
10341;SDS011;5216;54.602;18.356;2022-07-22T04:14:17;13.18;;;11.98;;
10341;SDS011;5216;54.602;18.356;2022-07-22T04:16:43;14.82;;;12.55;;
10341;SDS011;5216;54.602;18.356;2022-07-22T04:19:10;14.82;;;13.40;;
10341;SDS011;5216;54.602;18.356;2022-07-22T04:21:37;13.93;;;12.48;;
10341;SDS011;5216;54.602;18.356;2022-07-22T04:24:04;14.85;;;13.38;;
10341;SDS011;5216;54.602;18.356;2022-07-22T04:26:31;14.48;;;13.07;;
10341;SDS011;5216;54.602;18.356;2022-07-22T04:28:58;14.45;;;12.70;;
10341;SDS011;5216;54.602;18.356;2022-07-22T04:31:26;13.93;;;12.57;;
10341;SDS011;5216;54.602;18.356;2022-07-22T04:33:53;14.25;;;12.80;;
10341;SDS011;5216;54.602;18.356;2022-07-22T04:36:19;14.07;;;12.65;;
10341;SDS011;5216;54.602;18.356;2022-07-22T04:38:46;13.75;;;12.32;;
10341;SDS011;5216;54.602;18.356;2022-07-22T04:41:13;13.32;;;12.07;;
10341;SDS011;5216;54.602;18.356;2022-07-22T04:43:39;14.70;;;13.30;;
10341;SDS011;5216;54.602;18.356;2022-07-22T04:46:06;13.80;;;12.50;;
10341;SDS011;5216;54.602;18.356;2022-07-22T04:48:33;13.93;;;12.50;;
10341;SDS011;5216;54.602;18.356;2022-07-22T04:51:00;13.35;;;11.88;;
10341;SDS011;5216;54.602;18.356;2022-07-22T04:53:27;12.98;;;11.73;;
10341;SDS011;5216;54.602;18.356;2022-07-22T04:56:13;12.80;;;11.60;;
10341;SDS011;5216;54.602;18.356;2022-07-22T04:58:39;15.80;;;12.05;;
10341;SDS011;5216;54.602;18.356;2022-07-22T05:01:06;15.52;;;14.07;;
10341;SDS011;5216;54.602;18.356;2022-07-22T05:03:33;15.25;;;13.40;;
10341;SDS011;5216;54.602;18.356;2022-07-22T05:06:01;20.02;;;12.55;;
10341;SDS011;5216;54.602;18.356;2022-07-22T05:08:27;13.43;;;12.07;;
10341;SDS011;5216;54.602;18.356;2022-07-22T05:10:54;16.08;;;12.35;;
10341;SDS011;5216;54.602;18.356;2022-07-22T05:13:20;16.27;;;12.98;;
10341;SDS011;5216;54.602;18.356;2022-07-22T05:15:47;14.55;;;13.02;;
10341;SDS011;5216;54.602;18.356;2022-07-22T05:18:13;32.75;;;27.95;;
10341;SDS011;5216;54.602;18.356;2022-07-22T05:20:40;13.05;;;11.73;;
10341;SDS011;5216;54.602;18.356;2022-07-22T05:23:07;14.50;;;11.98;;
10341;SDS011;5216;54.602;18.356;2022-07-22T05:25:33;12.45;;;11.20;;
10341;SDS011;5216;54.602;18.356;2022-07-22T05:28:00;17.52;;;13.63;;
10341;SDS011;5216;54.602;18.356;2022-07-22T05:30:27;14.68;;;12.63;;
10341;SDS011;5216;54.602;18.356;2022-07-22T05:32:54;13.98;;;12.65;;
10341;SDS011;5216;54.602;18.356;2022-07-22T05:35:20;14.98;;;13.45;;
10341;SDS011;5216;54.602;18.356;2022-07-22T05:37:47;19.25;;;14.23;;
10341;SDS011;5216;54.602;18.356;2022-07-22T05:40:14;14.27;;;12.88;;
10341;SDS011;5216;54.602;18.356;2022-07-22T05:42:40;14.70;;;12.45;;
10341;SDS011;5216;54.602;18.356;2022-07-22T05:45:07;14.68;;;13.00;;
10341;SDS011;5216;54.602;18.356;2022-07-22T05:47:34;15.82;;;13.07;;
10341;SDS011;5216;54.602;18.356;2022-07-22T05:50:00;14.13;;;12.65;;
10341;SDS011;5216;54.602;18.356;2022-07-22T05:52:27;16.63;;;12.82;;
10341;SDS011;5216;54.602;18.356;2022-07-22T05:54:54;14.70;;;11.98;;
10341;SDS011;5216;54.602;18.356;2022-07-22T05:57:20;13.88;;;12.25;;
10341;SDS011;5216;54.602;18.356;2022-07-22T05:59:47;16.02;;;12.40;;
10341;SDS011;5216;54.602;18.356;2022-07-22T06:02:14;15.23;;;12.07;;
10341;SDS011;5216;54.602;18.356;2022-07-22T06:04:40;13.73;;;11.57;;
10341;SDS011;5216;54.602;18.356;2022-07-22T06:07:07;12.85;;;11.60;;
10341;SDS011;5216;54.602;18.356;2022-07-22T06:09:34;13.63;;;12.05;;
10341;SDS011;5216;54.602;18.356;2022-07-22T06:12:00;17.33;;;12.25;;
10341;SDS011;5216;54.602;18.356;2022-07-22T06:14:28;13.50;;;12.07;;
10341;SDS011;5216;54.602;18.356;2022-07-22T06:16:54;13.05;;;11.65;;
10341;SDS011;5216;54.602;18.356;2022-07-22T06:19:21;15.63;;;12.32;;
10341;SDS011;5216;54.602;18.356;2022-07-22T06:21:48;13.55;;;12.25;;
10341;SDS011;5216;54.602;18.356;2022-07-22T06:24:14;16.58;;;12.88;;
10341;SDS011;5216;54.602;18.356;2022-07-22T06:26:41;15.20;;;13.00;;
10341;SDS011;5216;54.602;18.356;2022-07-22T06:29:07;13.30;;;11.90;;
10341;SDS011;5216;54.602;18.356;2022-07-22T06:31:34;13.10;;;11.38;;
10341;SDS011;5216;54.602;18.356;2022-07-22T06:34:01;12.07;;;10.95;;
10341;SDS011;5216;54.602;18.356;2022-07-22T06:36:32;11.65;;;10.52;;
10341;SDS011;5216;54.602;18.356;2022-07-22T06:38:59;11.43;;;10.18;;
10341;SDS011;5216;54.602;18.356;2022-07-22T06:41:26;13.10;;;10.65;;
10341;SDS011;5216;54.602;18.356;2022-07-22T06:43:53;11.45;;;10.35;;
10341;SDS011;5216;54.602;18.356;2022-07-22T06:46:19;11.20;;;10.18;;
10341;SDS011;5216;54.602;18.356;2022-07-22T06:48:46;11.30;;;10.20;;
10341;SDS011;5216;54.602;18.356;2022-07-22T06:51:13;16.55;;;13.85;;
10341;SDS011;5216;54.602;18.356;2022-07-22T06:53:41;21.83;;;19.55;;
10341;SDS011;5216;54.602;18.356;2022-07-22T06:56:14;23.17;;;20.50;;
10341;SDS011;5216;54.602;18.356;2022-07-22T06:58:42;17.10;;;15.30;;
10341;SDS011;5216;54.602;18.356;2022-07-22T07:01:08;17.98;;;16.08;;
10341;SDS011;5216;54.602;18.356;2022-07-22T07:03:35;30.08;;;23.67;;
10341;SDS011;5216;54.602;18.356;2022-07-22T07:06:02;23.83;;;21.15;;
10341;SDS011;5216;54.602;18.356;2022-07-22T07:08:29;20.20;;;17.30;;
10341;SDS011;5216;54.602;18.356;2022-07-22T07:10:56;22.63;;;20.33;;
10341;SDS011;5216;54.602;18.356;2022-07-22T07:13:23;16.90;;;15.27;;
10341;SDS011;5216;54.602;18.356;2022-07-22T07:15:49;22.63;;;20.05;;
10341;SDS011;5216;54.602;18.356;2022-07-22T07:18:16;19.42;;;16.90;;
10341;SDS011;5216;54.602;18.356;2022-07-22T07:20:44;28.67;;;22.85;;
10341;SDS011;5216;54.602;18.356;2022-07-22T07:23:11;23.48;;;20.95;;
10341;SDS011;5216;54.602;18.356;2022-07-22T07:25:37;17.50;;;15.80;;
10341;SDS011;5216;54.602;18.356;2022-07-22T07:28:04;16.80;;;15.15;;
10341;SDS011;5216;54.602;18.356;2022-07-22T07:30:31;15.95;;;14.30;;
10341;SDS011;5216;54.602;18.356;2022-07-22T07:32:58;15.85;;;13.30;;
10341;SDS011;5216;54.602;18.356;2022-07-22T07:35:26;15.65;;;14.05;;
10341;SDS011;5216;54.602;18.356;2022-07-22T07:37:57;14.05;;;12.60;;
10341;SDS011;5216;54.602;18.356;2022-07-22T07:40:24;13.27;;;11.80;;
10341;SDS011;5216;54.602;18.356;2022-07-22T07:42:51;39.33;;;35.38;;
10341;SDS011;5216;54.602;18.356;2022-07-22T07:45:28;35.13;;;31.63;;
10341;SDS011;5216;54.602;18.356;2022-07-22T07:47:56;16.90;;;15.25;;
10341;SDS011;5216;54.602;18.356;2022-07-22T07:50:22;15.82;;;14.30;;
10341;SDS011;5216;54.602;18.356;2022-07-22T07:52:49;15.10;;;13.70;;
10341;SDS011;5216;54.602;18.356;2022-07-22T07:55:18;16.38;;;14.77;;
10341;SDS011;5216;54.602;18.356;2022-07-22T07:57:46;16.40;;;14.82;;
10341;SDS011;5216;54.602;18.356;2022-07-22T08:00:17;15.05;;;13.52;;
10341;SDS011;5216;54.602;18.356;2022-07-22T08:02:46;12.68;;;11.45;;
10341;SDS011;5216;54.602;18.356;2022-07-22T08:05:13;12.95;;;10.68;;
10341;SDS011;5216;54.602;18.356;2022-07-22T08:07:40;11.15;;;10.00;;
10341;SDS011;5216;54.602;18.356;2022-07-22T08:10:08;10.63;;;9.63;;
10341;SDS011;5216;54.602;18.356;2022-07-22T08:12:55;11.43;;;9.77;;
10341;SDS011;5216;54.602;18.356;2022-07-22T08:15:27;10.40;;;9.50;;
10341;SDS011;5216;54.602;18.356;2022-07-22T08:17:55;11.20;;;9.23;;
10341;SDS011;5216;54.602;18.356;2022-07-22T08:20:22;11.00;;;9.60;;
10341;SDS011;5216;54.602;18.356;2022-07-22T08:22:52;11.43;;;9.98;;
10341;SDS011;5216;54.602;18.356;2022-07-22T08:25:19;11.57;;;9.95;;
10341;SDS011;5216;54.602;18.356;2022-07-22T08:27:46;10.20;;;8.88;;
10341;SDS011;5216;54.602;18.356;2022-07-22T08:30:14;9.68;;;8.82;;
10341;SDS011;5216;54.602;18.356;2022-07-22T08:32:42;9.80;;;8.88;;
10341;SDS011;5216;54.602;18.356;2022-07-22T08:35:09;10.18;;;9.18;;
10341;SDS011;5216;54.602;18.356;2022-07-22T08:37:36;13.65;;;10.68;;
10341;SDS011;5216;54.602;18.356;2022-07-22T08:40:03;13.93;;;11.68;;
10341;SDS011;5216;54.602;18.356;2022-07-22T08:42:31;15.75;;;12.65;;
10341;SDS011;5216;54.602;18.356;2022-07-22T08:45:02;14.15;;;12.80;;
10341;SDS011;5216;54.602;18.356;2022-07-22T08:47:31;15.02;;;13.00;;
10341;SDS011;5216;54.602;18.356;2022-07-22T08:50:09;14.27;;;12.70;;
10341;SDS011;5216;54.602;18.356;2022-07-22T08:52:36;15.93;;;12.85;;
10341;SDS011;5216;54.602;18.356;2022-07-22T08:55:03;14.27;;;12.77;;
10341;SDS011;5216;54.602;18.356;2022-07-22T08:57:31;13.95;;;12.48;;
10341;SDS011;5216;54.602;18.356;2022-07-22T08:59:59;13.98;;;12.55;;
10341;SDS011;5216;54.602;18.356;2022-07-22T09:02:27;13.07;;;11.63;;
10341;SDS011;5216;54.602;18.356;2022-07-22T09:05:03;13.48;;;10.48;;
10341;SDS011;5216;54.602;18.356;2022-07-22T09:07:56;9.73;;;8.82;;
10341;SDS011;5216;54.602;18.356;2022-07-22T09:10:30;8.65;;;7.85;;
10341;SDS011;5216;54.602;18.356;2022-07-22T09:12:59;9.48;;;8.05;;
10341;SDS011;5216;54.602;18.356;2022-07-22T09:15:31;9.02;;;8.02;;
10341;SDS011;5216;54.602;18.356;2022-07-22T09:18:00;8.73;;;7.82;;
10341;SDS011;5216;54.602;18.356;2022-07-22T09:20:32;9.55;;;8.73;;
10341;SDS011;5216;54.602;18.356;2022-07-22T09:22:59;9.60;;;8.50;;
10341;SDS011;5216;54.602;18.356;2022-07-22T09:25:28;11.02;;;8.73;;
10341;SDS011;5216;54.602;18.356;2022-07-22T09:30:33;9.07;;;8.18;;
10341;SDS011;5216;54.602;18.356;2022-07-22T09:33:03;10.13;;;8.23;;
10341;SDS011;5216;54.602;18.356;2022-07-22T09:35:31;9.30;;;8.40;;
10341;SDS011;5216;54.602;18.356;2022-07-22T09:37:59;10.05;;;8.77;;
10341;SDS011;5216;54.602;18.356;2022-07-22T09:40:29;9.15;;;8.18;;
10341;SDS011;5216;54.602;18.356;2022-07-22T09:43:05;11.50;;;9.18;;
10341;SDS011;5216;54.602;18.356;2022-07-22T09:45:44;9.73;;;8.73;;
10341;SDS011;5216;54.602;18.356;2022-07-22T09:48:20;9.15;;;7.88;;
10341;SDS011;5216;54.602;18.356;2022-07-22T09:50:48;8.95;;;8.07;;
10341;SDS011;5216;54.602;18.356;2022-07-22T09:53:17;9.50;;;8.55;;
10341;SDS011;5216;54.602;18.356;2022-07-22T09:55:45;10.25;;;9.27;;
10341;SDS011;5216;54.602;18.356;2022-07-22T09:58:12;10.82;;;9.70;;
10341;SDS011;5216;54.602;18.356;2022-07-22T10:00:40;9.48;;;8.57;;
10341;SDS011;5216;54.602;18.356;2022-07-22T10:03:11;9.55;;;8.57;;
10341;SDS011;5216;54.602;18.356;2022-07-22T10:05:40;9.25;;;8.45;;
10341;SDS011;5216;54.602;18.356;2022-07-22T10:08:08;9.95;;;9.00;;
10341;SDS011;5216;54.602;18.356;2022-07-22T10:10:36;11.38;;;8.95;;
10341;SDS011;5216;54.602;18.356;2022-07-22T10:13:04;9.95;;;8.88;;
10341;SDS011;5216;54.602;18.356;2022-07-22T10:15:32;9.75;;;8.80;;
10341;SDS011;5216;54.602;18.356;2022-07-22T10:18:09;9.52;;;8.60;;
10341;SDS011;5216;54.602;18.356;2022-07-22T10:20:40;8.50;;;7.68;;
10341;SDS011;5216;54.602;18.356;2022-07-22T10:23:08;8.77;;;7.88;;
10341;SDS011;5216;54.602;18.356;2022-07-22T10:25:55;9.10;;;8.18;;
10341;SDS011;5216;54.602;18.356;2022-07-22T10:28:29;9.45;;;8.65;;
10341;SDS011;5216;54.602;18.356;2022-07-22T10:33:44;9.40;;;8.50;;
10341;SDS011;5216;54.602;18.356;2022-07-22T10:36:21;9.60;;;8.70;;
10341;SDS011;5216;54.602;18.356;2022-07-22T10:39:04;10.30;;;9.30;;
10341;SDS011;5216;54.602;18.356;2022-07-22T10:41:36;9.20;;;8.40;;
10341;SDS011;5216;54.602;18.356;2022-07-22T10:44:04;9.40;;;8.50;;
10341;SDS011;5216;54.602;18.356;2022-07-22T10:46:47;9.32;;;8.43;;
10341;SDS011;5216;54.602;18.356;2022-07-22T10:49:19;12.13;;;10.95;;
10341;SDS011;5216;54.602;18.356;2022-07-22T10:55:14;10.32;;;8.50;;
10341;SDS011;5216;54.602;18.356;2022-07-22T10:57:40;9.80;;;8.63;;
10341;SDS011;5216;54.602;18.356;2022-07-22T11:00:07;9.45;;;8.55;;
10341;SDS011;5216;54.602;18.356;2022-07-22T11:02:34;14.55;;;13.25;;
10341;SDS011;5216;54.602;18.356;2022-07-22T11:05:04;10.20;;;7.18;;
10341;SDS011;5216;54.602;18.356;2022-07-22T11:07:32;8.35;;;7.47;;
10341;SDS011;5216;54.602;18.356;2022-07-22T11:12:46;7.80;;;6.75;;
10341;SDS011;5216;54.602;18.356;2022-07-22T11:15:16;7.88;;;7.18;;
10341;SDS011;5216;54.602;18.356;2022-07-22T11:17:42;8.40;;;7.35;;
10341;SDS011;5216;54.602;18.356;2022-07-22T11:20:10;8.02;;;6.80;;
10341;SDS011;5216;54.602;18.356;2022-07-22T11:22:38;7.65;;;6.95;;
10341;SDS011;5216;54.602;18.356;2022-07-22T11:25:06;7.53;;;6.93;;
10341;SDS011;5216;54.602;18.356;2022-07-22T11:27:34;7.78;;;6.97;;
10341;SDS011;5216;54.602;18.356;2022-07-22T11:30:01;8.18;;;7.43;;
10341;SDS011;5216;54.602;18.356;2022-07-22T11:32:30;10.25;;;9.30;;
10341;SDS011;5216;54.602;18.356;2022-07-22T11:34:59;10.45;;;9.35;;
10341;SDS011;5216;54.602;18.356;2022-07-22T11:37:26;11.05;;;10.05;;
10341;SDS011;5216;54.602;18.356;2022-07-22T11:40:01;10.45;;;9.45;;
10341;SDS011;5216;54.602;18.356;2022-07-22T11:42:30;10.05;;;9.15;;
10341;SDS011;5216;54.602;18.356;2022-07-22T11:44:57;10.10;;;9.20;;
10341;SDS011;5216;54.602;18.356;2022-07-22T11:47:24;11.75;;;10.55;;
10341;SDS011;5216;54.602;18.356;2022-07-22T11:49:51;17.73;;;14.63;;
10341;SDS011;5216;54.602;18.356;2022-07-22T11:52:18;13.75;;;12.43;;
10341;SDS011;5216;54.602;18.356;2022-07-22T11:54:45;15.07;;;13.60;;
10341;SDS011;5216;54.602;18.356;2022-07-22T11:57:12;11.05;;;9.57;;
10341;SDS011;5216;54.602;18.356;2022-07-22T11:59:40;11.60;;;10.52;;
10341;SDS011;5216;54.602;18.356;2022-07-22T12:02:07;12.77;;;10.98;;
10341;SDS011;5216;54.602;18.356;2022-07-22T12:04:36;13.00;;;11.70;;
10341;SDS011;5216;54.602;18.356;2022-07-22T12:07:04;13.27;;;12.02;;
10341;SDS011;5216;54.602;18.356;2022-07-22T12:09:33;15.00;;;13.00;;
10341;SDS011;5216;54.602;18.356;2022-07-22T12:12:02;14.82;;;13.32;;
10341;SDS011;5216;54.602;18.356;2022-07-22T12:14:31;14.98;;;13.35;;
10341;SDS011;5216;54.602;18.356;2022-07-22T12:17:09;16.48;;;12.70;;
10341;SDS011;5216;54.602;18.356;2022-07-22T12:19:37;14.40;;;12.93;;
10341;SDS011;5216;54.602;18.356;2022-07-22T12:27:05;15.85;;;14.25;;
10341;SDS011;5216;54.602;18.356;2022-07-22T12:34:45;14.65;;;13.25;;
10341;SDS011;5216;54.602;18.356;2022-07-22T12:37:20;15.13;;;12.98;;
10341;SDS011;5216;54.602;18.356;2022-07-22T12:42:21;16.23;;;14.48;;
10341;SDS011;5216;54.602;18.356;2022-07-22T12:45:05;24.90;;;22.23;;
10341;SDS011;5216;54.602;18.356;2022-07-22T12:47:40;20.95;;;18.75;;
10341;SDS011;5216;54.602;18.356;2022-07-22T12:52:53;10.40;;;9.20;;
10341;SDS011;5216;54.602;18.356;2022-07-22T12:55:48;9.65;;;8.68;;
10341;SDS011;5216;54.602;18.356;2022-07-22T12:58:24;9.60;;;8.70;;
10341;SDS011;5216;54.602;18.356;2022-07-22T13:00:54;8.68;;;7.88;;
10341;SDS011;5216;54.602;18.356;2022-07-22T13:03:22;9.30;;;7.50;;
10341;SDS011;5216;54.602;18.356;2022-07-22T13:05:53;6.97;;;6.25;;
10341;SDS011;5216;54.602;18.356;2022-07-22T13:08:22;7.60;;;6.22;;
10341;SDS011;5216;54.602;18.356;2022-07-22T13:10:50;7.88;;;6.32;;
10341;SDS011;5216;54.602;18.356;2022-07-22T13:13:18;7.13;;;6.53;;
10341;SDS011;5216;54.602;18.356;2022-07-22T13:15:46;7.13;;;6.32;;
10341;SDS011;5216;54.602;18.356;2022-07-22T13:18:14;7.72;;;6.28;;
10341;SDS011;5216;54.602;18.356;2022-07-22T13:20:42;8.15;;;6.50;;
10341;SDS011;5216;54.602;18.356;2022-07-22T13:23:09;6.78;;;6.13;;
10341;SDS011;5216;54.602;18.356;2022-07-22T13:25:36;6.22;;;5.63;;
10341;SDS011;5216;54.602;18.356;2022-07-22T13:28:02;6.78;;;5.63;;
10341;SDS011;5216;54.602;18.356;2022-07-22T13:30:29;6.03;;;5.43;;
10341;SDS011;5216;54.602;18.356;2022-07-22T13:32:58;5.95;;;5.38;;
10341;SDS011;5216;54.602;18.356;2022-07-22T13:35:25;6.90;;;6.20;;
10341;SDS011;5216;54.602;18.356;2022-07-22T13:37:51;8.90;;;8.00;;
10341;SDS011;5216;54.602;18.356;2022-07-22T13:40:18;10.77;;;5.63;;
10341;SDS011;5216;54.602;18.356;2022-07-22T13:42:45;6.75;;;5.88;;
10341;SDS011;5216;54.602;18.356;2022-07-22T13:45:11;8.57;;;6.20;;
10341;SDS011;5216;54.602;18.356;2022-07-22T13:47:39;6.75;;;5.60;;
10341;SDS011;5216;54.602;18.356;2022-07-22T13:50:07;7.15;;;6.32;;
10341;SDS011;5216;54.602;18.356;2022-07-22T13:52:34;7.70;;;5.90;;
10341;SDS011;5216;54.602;18.356;2022-07-22T13:55:00;6.95;;;5.50;;
10341;SDS011;5216;54.602;18.356;2022-07-22T13:57:27;8.32;;;6.40;;
10341;SDS011;5216;54.602;18.356;2022-07-22T13:59:54;7.95;;;6.43;;
10341;SDS011;5216;54.602;18.356;2022-07-22T14:02:22;6.72;;;6.03;;
10341;SDS011;5216;54.602;18.356;2022-07-22T14:04:49;6.57;;;5.88;;
10341;SDS011;5216;54.602;18.356;2022-07-22T14:07:16;7.15;;;6.35;;
10341;SDS011;5216;54.602;18.356;2022-07-22T14:09:42;5.72;;;5.03;;
10341;SDS011;5216;54.602;18.356;2022-07-22T14:12:09;7.63;;;5.30;;
10341;SDS011;5216;54.602;18.356;2022-07-22T14:14:36;7.63;;;5.28;;
10341;SDS011;5216;54.602;18.356;2022-07-22T14:17:03;5.63;;;4.70;;
10341;SDS011;5216;54.602;18.356;2022-07-22T14:19:30;6.22;;;4.65;;
10341;SDS011;5216;54.602;18.356;2022-07-22T14:21:57;5.53;;;4.53;;
10341;SDS011;5216;54.602;18.356;2022-07-22T14:24:24;6.05;;;5.30;;
10341;SDS011;5216;54.602;18.356;2022-07-22T14:26:52;5.82;;;5.00;;
10341;SDS011;5216;54.602;18.356;2022-07-22T14:29:19;5.70;;;5.10;;
10341;SDS011;5216;54.602;18.356;2022-07-22T14:31:48;7.43;;;5.95;;
10341;SDS011;5216;54.602;18.356;2022-07-22T14:34:15;7.32;;;5.07;;
10341;SDS011;5216;54.602;18.356;2022-07-22T14:36:44;8.65;;;7.75;;
10341;SDS011;5216;54.602;18.356;2022-07-22T14:39:11;5.88;;;5.28;;
10341;SDS011;5216;54.602;18.356;2022-07-22T14:41:37;9.25;;;5.38;;
10341;SDS011;5216;54.602;18.356;2022-07-22T14:44:04;4.70;;;4.28;;
10341;SDS011;5216;54.602;18.356;2022-07-22T14:46:31;7.30;;;4.85;;
10341;SDS011;5216;54.602;18.356;2022-07-22T14:48:58;5.95;;;5.00;;
10341;SDS011;5216;54.602;18.356;2022-07-22T14:51:25;7.95;;;5.18;;
10341;SDS011;5216;54.602;18.356;2022-07-22T14:53:52;5.75;;;4.97;;
10341;SDS011;5216;54.602;18.356;2022-07-22T14:56:19;5.25;;;4.65;;
10341;SDS011;5216;54.602;18.356;2022-07-22T14:58:45;5.72;;;4.78;;
10341;SDS011;5216;54.602;18.356;2022-07-22T15:01:12;4.65;;;4.18;;